Time;durP1;ratioP1;P1;durP2;ratioP2;P2;SDS_P1;SDS_P2;PMS_P1;PMS_P2;Temp;Humidity;BMP_temperature;BMP_pressure;BME280_temperature;BME280_humidity;BME280_pressure;Samples;Min_cycle;Max_cycle;Signal;HPM_P1;HPM_P2
2023/10/01 00:01:20;;;;;;;12.27;5.97;;;;;;;11.79;100.00;98305.44;4984582;28;20910;-82
2023/10/01 00:03:47;;;;;;;10.60;5.40;;;;;;;11.79;100.00;98308.09;4995819;28;20449;-82
2023/10/01 00:06:13;;;;;;;10.38;5.40;;;;;;;11.76;100.00;98303.25;4990644;28;20792;-81
2023/10/01 00:08:40;;;;;;;11.10;5.30;;;;;;;11.78;100.00;98310.97;4987193;28;20425;-84
2023/10/01 00:11:08;;;;;;;10.73;5.18;;;;;;;11.76;100.00;98302.44;4992018;28;20403;-83
2023/10/01 00:13:35;;;;;;;11.83;5.67;;;;;;;11.74;100.00;98302.69;5003261;28;20434;-82
2023/10/01 00:16:03;;;;;;;10.37;5.20;;;;;;;11.72;100.00;98309.25;4990677;28;20414;-82
2023/10/01 00:18:29;;;;;;;10.57;5.65;;;;;;;11.71;100.00;98305.78;4991924;28;20398;-82
2023/10/01 00:20:55;;;;;;;11.07;5.35;;;;;;;11.69;100.00;98301.75;4987516;28;20493;-82
2023/10/01 00:23:21;;;;;;;11.85;5.47;;;;;;;11.67;100.00;98298.53;4988413;28;20491;-80
2023/10/01 00:25:49;;;;;;;10.93;5.72;;;;;;;11.65;100.00;98298.78;4978260;28;20445;-81
2023/10/01 00:28:15;;;;;;;8.55;5.10;;;;;;;11.63;100.00;98291.06;4987397;28;20436;-83
2023/10/01 00:30:42;;;;;;;11.00;5.70;;;;;;;11.62;100.00;98283.31;4987610;28;20431;-81
2023/10/01 00:33:10;;;;;;;9.95;4.90;;;;;;;11.59;100.00;98287.25;4996105;28;20402;-84
2023/10/01 00:35:39;;;;;;;11.95;6.30;;;;;;;11.57;100.00;98288.53;4994280;28;20449;-83
2023/10/01 00:38:05;;;;;;;12.73;6.07;;;;;;;11.54;100.00;98289.00;4985036;28;20408;-83
2023/10/01 00:40:32;;;;;;;11.43;5.57;;;;;;;11.52;100.00;98291.88;4984207;28;20398;-82
2023/10/01 00:43:00;;;;;;;11.13;5.50;;;;;;;11.50;100.00;98293.94;4994765;28;20504;-80
2023/10/01 00:45:27;;;;;;;12.32;5.80;;;;;;;11.47;100.00;98288.31;4983302;28;20403;-82
2023/10/01 00:47:54;;;;;;;11.88;5.63;;;;;;;11.47;100.00;98293.63;4991256;28;20448;-85
2023/10/01 00:50:22;;;;;;;11.73;5.65;;;;;;;11.46;100.00;98297.31;4990701;28;20399;-84
2023/10/01 00:52:49;;;;;;;10.82;5.32;;;;;;;11.46;100.00;98299.97;4986980;28;20470;-82
2023/10/01 00:55:17;;;;;;;10.97;6.03;;;;;;;11.44;100.00;98300.19;4988933;28;20459;-85
2023/10/01 00:57:43;;;;;;;12.48;5.78;;;;;;;11.43;100.00;98305.72;4985786;28;20390;-82
2023/10/01 01:00:16;;;;;;;18.13;6.72;;;;;;;11.41;100.00;98295.38;4995964;28;20751;-85
2023/10/01 01:03:26;;;;;;;12.17;6.00;;;;;;;11.38;100.00;98290.53;4995691;28;20437;-85
2023/10/01 01:05:56;;;;;;;15.00;6.07;;;;;;;11.36;100.00;98291.78;4986247;28;20844;-83
2023/10/01 01:08:29;;;;;;;12.00;6.00;;;;;;;11.33;100.00;98295.72;4984804;28;20408;-82
2023/10/01 01:10:56;;;;;;;13.27;6.30;;;;;;;11.32;100.00;98293.31;4989964;28;20399;-84
2023/10/01 01:13:25;;;;;;;11.55;5.57;;;;;;;11.32;100.00;98288.00;4999031;28;20410;-84
2023/10/01 01:15:53;;;;;;;16.00;6.90;;;;;;;11.31;100.00;98297.00;4998887;28;20410;-83
2023/10/01 01:18:20;;;;;;;13.85;6.55;;;;;;;11.31;100.00;98294.34;4990227;28;20406;-81
2023/10/01 01:20:48;;;;;;;13.70;6.93;;;;;;;11.29;100.00;98301.72;4996136;28;20394;-81
2023/10/01 01:23:17;;;;;;;11.65;5.78;;;;;;;11.28;100.00;98284.22;4986889;28;20808;-81
2023/10/01 01:25:44;;;;;;;12.33;6.53;;;;;;;11.25;100.00;98290.78;4980719;28;20408;-82
2023/10/01 01:28:15;;;;;;;13.18;6.18;;;;;;;11.25;100.00;98280.19;4998017;28;20406;-82
2023/10/01 01:30:47;;;;;;;14.30;6.57;;;;;;;11.25;100.00;98293.44;4989796;28;20415;-82
2023/10/01 01:33:13;;;;;;;11.55;5.88;;;;;;;11.24;100.00;98287.31;4997861;28;20453;-83
2023/10/01 01:35:39;;;;;;;12.63;6.10;;;;;;;11.22;100.00;98285.94;4989927;28;20469;-82
2023/10/01 01:38:07;;;;;;;10.75;5.68;;;;;;;11.18;100.00;98285.63;4983692;28;20403;-82
2023/10/01 01:40:40;;;;;;;11.60;5.73;;;;;;;11.16;100.00;98285.03;4989813;28;20885;-84
2023/10/01 01:43:15;;;;;;;10.50;5.13;;;;;;;11.14;100.00;98281.00;4979525;28;20404;-84
2023/10/01 01:45:44;;;;;;;12.82;6.28;;;;;;;11.11;100.00;98284.94;4988026;28;20421;-81
2023/10/01 01:50:55;;;;;;;11.88;6.00;;;;;;;11.06;100.00;98273.41;4987501;28;20885;-82
2023/10/01 01:53:21;;;;;;;12.00;6.45;;;;;;;11.04;100.00;98273.66;4987423;28;20988;-82
2023/10/01 01:55:53;;;;;;;13.60;6.45;;;;;;;11.01;100.00;98268.81;4994869;28;20517;-81
2023/10/01 01:58:24;;;;;;;13.38;6.07;;;;;;;10.99;100.00;98265.56;4993056;28;20394;-82
2023/10/01 02:01:17;;;;;;;12.45;5.82;;;;;;;10.97;100.00;98266.88;4998003;28;20426;-82
2023/10/01 02:03:51;;;;;;;12.07;6.05;;;;;;;10.95;100.00;98253.84;4991182;28;20441;-83
2023/10/01 02:06:26;;;;;;;13.38;6.45;;;;;;;10.93;100.00;98260.41;4993020;28;20428;-82
2023/10/01 02:08:59;;;;;;;10.53;5.53;;;;;;;10.92;100.00;98262.25;4995687;28;20398;-82
2023/10/01 02:11:29;;;;;;;10.53;5.83;;;;;;;10.88;100.00;98261.09;4988408;28;20459;-82
2023/10/01 02:13:57;;;;;;;11.43;5.63;;;;;;;10.88;100.00;98261.09;4997770;28;20449;-84
2023/10/01 02:18:56;;;;;;;12.18;6.05;;;;;;;10.83;100.00;98250.38;4999055;28;20402;-83
2023/10/01 02:21:42;;;;;;;13.30;5.80;;;;;;;10.80;100.00;98249.03;4997489;28;20485;-84
2023/10/01 02:24:11;;;;;;;12.13;6.07;;;;;;;10.78;100.00;98259.03;4991108;28;20808;-83
2023/10/01 02:26:39;;;;;;;12.40;6.17;;;;;;;10.76;100.00;98254.97;4989765;28;20400;-84
2023/10/01 02:29:05;;;;;;;11.70;6.25;;;;;;;10.74;100.00;98257.09;4986506;28;20402;-84
2023/10/01 02:31:34;;;;;;;12.10;6.07;;;;;;;10.72;100.00;98249.38;4986992;28;20479;-83
2023/10/01 02:34:01;;;;;;;10.50;5.82;;;;;;;10.71;100.00;98255.69;4994668;28;20447;-85
2023/10/01 02:36:30;;;;;;;10.60;5.50;;;;;;;10.72;100.00;98253.84;4994357;28;20398;-84
2023/10/01 02:38:56;;;;;;;11.23;5.82;;;;;;;10.70;100.00;98256.72;4990706;28;20404;-84
2023/10/01 02:41:26;;;;;;;12.90;6.07;;;;;;;10.68;100.00;98250.03;4991806;28;20428;-83
2023/10/01 02:43:55;;;;;;;10.88;5.68;;;;;;;10.68;100.00;98255.31;4994340;28;20440;-84
2023/10/01 02:46:27;;;;;;;12.82;6.20;;;;;;;10.66;100.00;98254.78;4986165;28;20932;-84
2023/10/01 02:48:59;;;;;;;12.60;6.10;;;;;;;10.65;100.00;98245.22;4993797;28;20395;-85
2023/10/01 02:51:32;;;;;;;11.90;5.88;;;;;;;10.64;100.00;98241.75;4986595;28;20412;-83
2023/10/01 02:54:09;;;;;;;12.10;5.95;;;;;;;10.63;100.00;98242.78;4997261;28;21003;-83
2023/10/01 02:56:37;;;;;;;10.15;5.20;;;;;;;10.62;100.00;98243.81;4984834;28;20440;-79
2023/10/01 02:59:12;;;;;;;11.40;6.00;;;;;;;10.61;100.00;98244.84;4995913;28;20403;-82
2023/10/01 03:01:42;;;;;;;12.73;6.65;;;;;;;10.59;100.00;98236.34;4979211;28;20499;-83
2023/10/01 03:04:18;;;;;;;12.63;6.45;;;;;;;10.58;100.00;98239.22;4980264;28;20407;-81
2023/10/01 03:06:53;;;;;;;12.68;6.00;;;;;;;10.58;100.00;98232.09;4987093;28;20402;-81
2023/10/01 03:09:34;;;;;;;10.00;5.18;;;;;;;10.58;100.00;98241.88;4990539;28;20413;-83
2023/10/01 03:15:00;;;;;;;10.23;5.47;;;;;;;10.55;100.00;98243.13;4985063;28;20455;-82
2023/10/01 03:17:27;;;;;;;10.25;5.40;;;;;;;10.53;100.00;98237.25;4987545;28;20438;-82
2023/10/01 03:19:54;;;;;;;13.55;6.10;;;;;;;10.54;100.00;98238.06;4979258;28;20808;-82
2023/10/01 03:22:23;;;;;;;12.35;6.43;;;;;;;10.54;100.00;98240.72;4995888;28;20434;-82
2023/10/01 03:24:51;;;;;;;10.55;6.15;;;;;;;10.54;100.00;98248.66;4978994;28;20511;-81
2023/10/01 03:27:24;;;;;;;14.90;7.07;;;;;;;10.51;100.00;98241.19;4990607;28;20400;-83
2023/10/01 03:30:02;;;;;;;12.15;6.47;;;;;;;10.51;100.00;98241.19;4985753;28;20412;-83
2023/10/01 03:32:29;;;;;;;11.90;5.90;;;;;;;10.48;100.00;98247.72;4989305;28;20869;-83
2023/10/01 03:34:55;;;;;;;15.48;7.00;;;;;;;10.46;100.00;98245.31;4991688;28;20446;-81
2023/10/01 03:37:27;;;;;;;12.15;6.00;;;;;;;10.46;100.00;98245.31;4989083;28;20413;-82
2023/10/01 03:40:07;;;;;;;11.85;5.95;;;;;;;10.44;100.00;98239.47;4986904;28;20400;-80
2023/10/01 03:42:36;;;;;;;12.23;6.20;;;;;;;10.44;100.00;98241.31;4987953;28;20816;-82
2023/10/01 03:47:34;;;;;;;11.73;5.55;;;;;;;10.44;100.00;98236.00;4994598;28;20526;-81
2023/10/01 03:50:01;;;;;;;9.93;5.50;;;;;;;10.45;100.00;98243.69;4994505;28;20585;-81
2023/10/01 03:52:29;;;;;;;13.57;6.15;;;;;;;10.44;100.00;98241.31;4994867;28;20806;-82
2023/10/01 03:57:25;;;;;;;12.52;6.90;;;;;;;10.39;100.00;98236.69;4989328;28;20418;-82
2023/10/01 03:59:52;;;;;;;11.10;5.80;;;;;;;10.39;100.00;98238.50;4994825;28;20492;-82
2023/10/01 04:05:21;;;;;;;14.00;6.60;;;;;;;10.33;100.00;98234.94;4983508;28;20479;-84
2023/10/01 04:07:47;;;;;;;15.25;7.10;;;;;;;10.32;100.00;98233.31;4992441;28;20598;-81
2023/10/01 04:10:15;;;;;;;14.27;6.60;;;;;;;10.31;100.00;98229.06;4987379;28;20406;-81
2023/10/01 04:12:44;;;;;;;14.23;6.68;;;;;;;10.29;100.00;98233.81;4986574;28;20399;-81
2023/10/01 04:15:22;;;;;;;12.52;6.40;;;;;;;10.27;100.00;98232.41;4983709;28;20912;-82
2023/10/01 04:18:09;;;;;;;11.75;6.45;;;;;;;10.25;100.00;98229.97;4983914;28;20440;-83
2023/10/01 04:20:36;;;;;;;10.23;5.82;;;;;;;10.24;100.00;98241.59;4983364;28;20404;-82
2023/10/01 04:23:04;;;;;;;12.05;6.10;;;;;;;10.21;100.00;98226.19;4994327;28;20822;-82
2023/10/01 04:25:36;;;;;;;13.48;6.53;;;;;;;10.21;100.00;98231.50;4988637;28;20458;-84
2023/10/01 04:28:05;;;;;;;11.65;6.50;;;;;;;10.20;100.00;98229.06;4983411;28;20406;-83
2023/10/01 04:30:34;;;;;;;14.65;7.47;;;;;;;10.16;100.00;98223.38;4989890;28;20406;-82
2023/10/01 04:33:17;;;;;;;13.25;6.00;;;;;;;10.15;100.00;98227.06;4992831;28;20464;-83
2023/10/01 04:35:51;;;;;;;13.30;7.05;;;;;;;10.13;100.00;98226.50;4991073;28;20782;-81
2023/10/01 04:38:19;;;;;;;13.32;7.03;;;;;;;10.13;100.00;98225.69;4988605;28;20402;-83
2023/10/01 04:40:48;;;;;;;14.30;6.90;;;;;;;10.10;100.00;98230.38;4986559;28;20500;-83
2023/10/01 04:43:16;;;;;;;16.42;7.25;;;;;;;10.08;100.00;98219.22;4978895;28;20405;-82
2023/10/01 04:45:44;;;;;;;12.73;6.43;;;;;;;10.10;100.00;98227.75;4989551;28;20442;-83
2023/10/01 04:48:24;;;;;;;14.60;6.83;;;;;;;10.09;100.00;98215.53;5000616;28;20449;-81
2023/10/01 04:50:53;;;;;;;15.93;7.88;;;;;;;10.10;100.00;98209.22;4996486;28;20414;-83
2023/10/01 04:53:22;;;;;;;11.82;6.63;;;;;;;10.11;100.00;98207.38;5004672;28;20411;-83
2023/10/01 04:56:05;;;;;;;12.13;6.97;;;;;;;10.09;100.00;98199.66;4996937;28;20480;-84
2023/10/01 04:58:32;;;;;;;12.48;6.40;;;;;;;10.09;100.00;98201.50;5006981;28;20422;-83
2023/10/01 05:00:58;;;;;;;14.17;7.23;;;;;;;10.10;100.00;98206.59;4991131;28;20578;-85
2023/10/01 05:03:44;;;;;;;12.35;6.80;;;;;;;10.11;100.00;98210.03;5009458;28;20394;-84
2023/10/01 05:06:12;;;;;;;11.45;6.53;;;;;;;10.12;100.00;98213.50;5005893;28;20423;-82
2023/10/01 05:08:39;;;;;;;12.45;6.97;;;;;;;10.10;100.00;98219.00;4994822;28;20399;-84
2023/10/01 05:11:10;;;;;;;9.20;6.03;;;;;;;10.10;100.00;98224.28;5006748;28;20394;-85
2023/10/01 05:13:39;;;;;;;14.02;7.13;;;;;;;10.09;100.00;98228.78;4996533;28;20406;-85
2023/10/01 05:16:06;;;;;;;11.25;6.18;;;;;;;10.10;100.00;98237.50;4984604;28;20416;-86
2023/10/01 05:18:34;;;;;;;12.18;5.88;;;;;;;10.13;100.00;98241.56;4986610;28;20491;-83
2023/10/01 05:21:04;;;;;;;12.73;6.80;;;;;;;10.13;100.00;98238.91;5001543;28;20489;-83
2023/10/01 05:23:30;;;;;;;12.98;6.55;;;;;;;10.13;100.00;98244.22;5005511;28;20394;-86
2023/10/01 05:25:57;;;;;;;12.20;6.30;;;;;;;10.14;100.00;98240.53;4993719;28;20491;-87
2023/10/01 05:28:31;;;;;;;14.38;7.18;;;;;;;10.15;100.00;98248.22;4994508;28;20404;-83
2023/10/01 05:30:58;;;;;;;14.13;6.90;;;;;;;10.15;100.00;98244.78;5003448;28;20449;-85
2023/10/01 05:33:24;;;;;;;13.30;6.35;;;;;;;10.16;100.00;98255.13;5004089;28;20401;-84
2023/10/01 05:35:57;;;;;;;10.18;5.80;;;;;;;10.18;100.00;98253.09;5004798;28;20437;-87
2023/10/01 05:38:26;;;;;;;18.92;7.70;;;;;;;10.21;100.00;98257.94;4986850;28;20403;-87
2023/10/01 05:40:55;;;;;;;12.27;6.35;;;;;;;10.23;100.00;98258.50;5004674;28;20399;-85
2023/10/01 05:43:23;;;;;;;13.00;7.00;;;;;;;10.25;100.00;98256.44;4988797;28;20472;-84
2023/10/01 05:45:52;;;;;;;16.40;8.00;;;;;;;10.25;100.00;98250.34;4981839;28;20447;-87
2023/10/01 05:48:19;;;;;;;16.07;7.50;;;;;;;10.28;100.00;98261.28;4995297;28;20554;-85
2023/10/01 05:50:49;;;;;;;16.02;6.93;;;;;;;10.29;100.00;98264.75;5004809;28;20933;-86
2023/10/01 05:53:18;;;;;;;12.45;6.53;;;;;;;10.31;100.00;98265.31;5004792;28;20421;-84
2023/10/01 05:55:45;;;;;;;13.90;6.13;;;;;;;10.34;100.00;98267.50;5002966;28;20445;-80
2023/10/01 05:58:14;;;;;;;9.70;5.25;;;;;;;10.37;100.00;98277.66;5005056;28;20433;-87
2023/10/01 06:00:45;;;;;;;11.52;6.10;;;;;;;10.39;100.00;98275.56;5002985;28;20460;-83
2023/10/01 06:03:13;;;;;;;11.20;6.00;;;;;;;10.43;100.00;98276.75;5000447;28;20418;-85
2023/10/01 06:05:57;;;;;;;11.03;5.77;;;;;;;10.46;100.00;98273.63;5003431;28;20449;-86
2023/10/01 06:08:25;;;;;;;12.20;6.28;;;;;;;10.47;100.00;98273.41;4999668;28;20931;-86
2023/10/01 06:10:59;;;;;;;12.32;6.32;;;;;;;10.51;100.00;98278.25;4986769;28;20421;-85
2023/10/01 06:13:28;;;;;;;15.55;7.65;;;;;;;10.52;100.00;98285.16;4995945;28;20399;-86
2023/10/01 06:15:56;;;;;;;13.25;6.38;;;;;;;10.53;100.00;98284.91;5003333;28;20430;-85
2023/10/01 06:18:22;;;;;;;11.07;5.82;;;;;;;10.57;100.00;98285.28;5003331;28;20438;-85
2023/10/01 06:20:50;;;;;;;14.43;7.38;;;;;;;10.58;100.00;98279.75;5014851;28;20394;-85
2023/10/01 06:23:17;;;;;;;10.47;5.67;;;;;;;10.62;100.00;98282.72;5019626;28;20419;-84
2023/10/01 06:25:51;;;;;;;10.35;5.50;;;;;;;10.66;100.00;98276.78;5017112;28;20429;-86
2023/10/01 06:28:20;;;;;;;11.97;5.87;;;;;;;10.68;100.00;98279.97;4998483;28;20392;-86
2023/10/01 06:30:48;;;;;;;10.27;5.32;;;;;;;10.73;100.00;98279.31;5001817;28;20414;-84
2023/10/01 06:33:28;;;;;;;12.23;5.97;;;;;;;10.80;100.00;98272.84;5003748;28;20409;-85
2023/10/01 06:38:41;;;;;;;9.93;5.35;;;;;;;11.08;100.00;98281.94;5004394;28;20431;-85
2023/10/01 06:41:13;;;;;;;8.93;4.85;;;;;;;11.22;100.00;98284.09;4981632;28;20914;-83
2023/10/01 06:43:54;;;;;;;9.82;5.18;;;;;;;11.37;100.00;98286.25;4987687;28;20678;-84
2023/10/01 06:46:22;;;;;;;8.85;5.07;;;;;;;11.54;100.00;98286.34;5002588;28;20827;-85
2023/10/01 06:48:49;;;;;;;9.25;5.10;;;;;;;11.70;100.00;98282.16;5001039;28;20448;-84
2023/10/01 06:51:16;;;;;;;9.63;5.18;;;;;;;11.85;100.00;98293.88;5000513;28;20408;-83
2023/10/01 06:53:48;;;;;;;9.85;5.05;;;;;;;11.99;100.00;98295.22;4992073;28;20418;-85
2023/10/01 06:56:17;;;;;;;8.90;5.13;;;;;;;12.12;100.00;98291.44;4994155;28;20423;-84
2023/10/01 07:01:46;;;;;;;8.97;4.90;;;;;;;12.38;100.00;98295.38;4994995;28;20457;-83
2023/10/01 07:04:13;;;;;;;13.68;5.13;;;;;;;12.48;100.00;98292.84;4994158;28;20443;-85
2023/10/01 07:06:40;;;;;;;8.75;4.80;;;;;;;12.57;100.00;98298.56;4995087;28;20791;-83
2023/10/01 07:09:24;;;;;;;8.02;4.63;;;;;;;12.66;100.00;98297.13;4994212;28;20420;-84
2023/10/01 07:11:52;;;;;;;9.65;4.68;;;;;;;12.74;100.00;98294.88;4996310;28;20412;-84
2023/10/01 07:14:29;;;;;;;9.23;4.88;;;;;;;12.81;100.00;98302.69;5009703;28;20480;-85
2023/10/01 07:16:56;;;;;;;10.25;5.15;;;;;;;12.88;100.00;98295.34;5000993;28;20406;-84
2023/10/01 07:19:22;;;;;;;10.25;5.10;;;;;;;12.95;100.00;98296.00;4997772;28;20433;-87
2023/10/01 07:21:56;;;;;;;10.55;5.22;;;;;;;13.02;100.00;98303.78;4996425;28;20472;-82
2023/10/01 07:24:23;;;;;;;9.35;4.90;;;;;;;13.09;100.00;98301.75;4993082;28;20547;-79
2023/10/01 07:26:51;;;;;;;10.00;4.97;;;;;;;13.14;100.00;98305.34;4993283;28;20413;-83
2023/10/01 07:29:18;;;;;;;9.45;4.68;;;;;;;13.21;100.00;98315.81;4991476;28;20402;-80
2023/10/01 07:31:44;;;;;;;10.60;5.45;;;;;;;13.29;100.00;98312.72;4992200;28;21292;-82
2023/10/01 07:34:13;;;;;;;9.43;4.80;;;;;;;13.37;100.00;98314.16;4995620;28;20425;-82
2023/10/01 07:36:42;;;;;;;9.63;4.93;;;;;;;13.45;100.00;98317.19;4991442;28;20414;-82
2023/10/01 07:39:08;;;;;;;8.73;4.60;;;;;;;13.57;100.00;98317.06;4991447;28;20410;-83
2023/10/01 07:41:38;;;;;;;8.18;4.65;;;;;;;13.69;100.00;98325.72;4994846;28;20422;-80
2023/10/01 07:44:09;;;;;;;8.70;4.60;;;;;;;13.83;100.00;98336.81;4996342;28;20421;-83
2023/10/01 07:46:36;;;;;;;9.47;4.60;;;;;;;13.96;100.00;98331.09;4994545;28;20436;-82
2023/10/01 07:49:02;;;;;;;9.00;4.50;;;;;;;14.08;100.00;98326.44;4990529;28;20777;-82
2023/10/01 07:51:35;;;;;;;7.97;4.68;;;;;;;14.22;100.00;98340.16;4997721;28;20398;-82
2023/10/01 07:54:09;;;;;;;9.55;5.32;;;;;;;14.37;100.00;98331.50;4995272;28;20402;-82
2023/10/01 07:56:36;;;;;;;10.63;5.40;;;;;;;14.50;100.00;98329.28;4993790;28;20405;-83
2023/10/01 08:02:09;;;;;;;10.02;5.30;;;;;;;14.84;100.00;98323.69;5004370;28;20476;-87
2023/10/01 08:07:17;;;;;;;10.48;5.35;;;;;;;15.40;100.00;98332.88;4993734;28;20414;-82
2023/10/01 08:09:47;;;;;;;10.48;4.95;;;;;;;15.72;100.00;98327.44;4986974;28;20499;-83
2023/10/01 08:12:14;;;;;;;8.85;5.30;;;;;;;16.09;100.00;98338.78;4989792;28;20789;-83
2023/10/01 08:14:40;;;;;;;11.63;5.43;;;;;;;16.46;100.00;98335.94;4999304;28;20426;-84
2023/10/01 08:17:08;;;;;;;8.90;5.07;;;;;;;16.86;100.00;98331.69;5000811;28;20399;-83
2023/10/01 08:19:44;;;;;;;10.20;5.40;;;;;;;17.22;100.00;98329.78;5000981;28;20394;-83
2023/10/01 08:22:13;;;;;;;10.60;5.75;;;;;;;17.56;100.00;98336.13;5004006;28;20438;-81
2023/10/01 08:24:45;;;;;;;10.38;5.03;;;;;;;17.82;100.00;98336.84;5002671;28;20406;-82
2023/10/01 08:27:29;;;;;;;12.05;5.30;;;;;;;17.95;100.00;98330.94;5002667;28;20429;-80
2023/10/01 08:32:49;;;;;;;11.50;5.05;;;;;;;18.03;100.00;98346.44;4987445;28;20854;-82
2023/10/01 08:35:22;;;;;;;10.18;4.90;;;;;;;18.03;100.00;98334.91;4984534;28;20420;-82
2023/10/01 08:37:49;;;;;;;10.80;4.68;;;;;;;18.05;100.00;98341.56;4983422;28;20412;-85
2023/10/01 08:40:17;;;;;;;11.75;5.55;;;;;;;18.07;100.00;98344.78;4991645;28;20420;-80
2023/10/01 08:42:44;;;;;;;9.93;4.93;;;;;;;18.13;100.00;98338.31;5001604;28;20405;-82
2023/10/01 08:45:12;;;;;;;10.48;5.43;;;;;;;18.16;100.00;98331.63;5003198;28;20404;-83
2023/10/01 08:47:38;;;;;;;10.18;5.30;;;;;;;18.21;100.00;98338.81;4988876;28;20427;-84
2023/10/01 08:53:10;;;;;;;9.40;5.07;;;;;;;18.22;100.00;98335.06;4975208;28;20795;-82
2023/10/01 08:55:39;;;;;;;10.45;5.20;;;;;;;18.17;100.00;98336.69;4985977;28;20424;-82
2023/10/01 08:58:15;;;;;;;12.02;4.80;;;;;;;18.15;100.00;98332.69;4985784;28;20435;-83
2023/10/01 09:00:48;;;;;;;12.23;5.10;;;;;;;18.14;100.00;98333.75;5004016;28;20403;-81
2023/10/01 09:03:26;;;;;;;9.52;4.50;;;;;;;18.13;100.00;98326.78;4984833;28;20399;-82
2023/10/01 09:06:03;;;;;;;9.20;4.72;;;;;;;18.15;100.00;98335.38;4986220;28;20404;-83
2023/10/01 09:08:32;;;;;;;9.35;4.43;;;;;;;18.19;100.00;98331.84;4986888;28;20447;-83
2023/10/01 09:11:13;;;;;;;10.07;4.67;;;;;;;18.25;100.00;98335.31;4986955;28;20498;-81
2023/10/01 09:13:46;;;;;;;7.70;4.13;;;;;;;18.34;100.00;98343.59;4987378;28;20404;-81
2023/10/01 09:16:12;;;;;;;8.18;4.18;;;;;;;18.40;100.00;98334.41;4987475;28;20462;-82
2023/10/01 09:19:03;;;;;;;8.07;4.20;;;;;;;18.45;100.00;98334.38;4982546;28;20453;-82
2023/10/01 09:21:40;;;;;;;8.98;4.20;;;;;;;18.52;100.00;98332.19;4982930;28;20878;-81
2023/10/01 09:24:39;;;;;;;9.50;3.92;;;;;;;18.61;100.00;98325.19;4981766;28;20400;-81
2023/10/01 09:27:09;;;;;;;9.38;3.97;;;;;;;18.74;100.00;98335.25;4984090;28;20428;-84
2023/10/01 09:29:45;;;;;;;8.43;4.32;;;;;;;18.83;100.00;98325.53;4992160;28;20408;-81
2023/10/01 09:32:13;;;;;;;9.10;4.53;;;;;;;18.94;100.00;98327.03;4986135;28;20439;-81
2023/10/01 09:34:46;;;;;;;9.23;4.43;;;;;;;19.04;100.00;98333.41;4996612;28;20428;-82
2023/10/01 09:37:30;;;;;;;8.77;4.43;;;;;;;19.09;100.00;98319.97;4978745;28;20441;-82
2023/10/01 09:40:03;;;;;;;8.90;4.50;;;;;;;19.23;100.00;98328.94;4985143;28;20411;-82
2023/10/01 09:42:44;;;;;;;9.45;4.82;;;;;;;19.37;100.00;98327.19;4991921;28;20795;-83
2023/10/01 09:45:26;;;;;;;10.45;5.35;;;;;;;19.60;100.00;98329.09;4991706;28;20463;-81
2023/10/01 09:48:03;;;;;;;9.77;5.35;;;;;;;19.93;100.00;98321.16;4985276;28;20407;-81
2023/10/01 09:50:39;;;;;;;11.02;5.00;;;;;;;20.40;100.00;98321.09;4978048;28;20418;-83
2023/10/01 09:53:12;;;;;;;10.88;4.88;;;;;;;20.99;100.00;98318.78;4995981;28;20407;-81
2023/10/01 09:55:49;;;;;;;8.52;4.82;;;;;;;21.59;100.00;98315.00;4995969;28;20450;-82
2023/10/01 09:58:24;;;;;;;10.80;5.25;;;;;;;22.28;100.00;98318.44;4990935;28;20410;-83
2023/10/01 10:00:51;;;;;;;12.27;5.30;;;;;;;22.91;100.00;98309.44;4989330;28;20398;-82
2023/10/01 10:03:18;;;;;;;11.50;5.38;;;;;;;23.30;100.00;98311.38;4988149;28;20432;-83
2023/10/01 10:05:46;;;;;;;11.80;5.63;;;;;;;23.57;100.00;98305.00;4989606;28;20481;-80
2023/10/01 10:08:15;;;;;;;10.85;5.22;;;;;;;23.69;100.00;98299.78;4988798;28;20809;-81
2023/10/01 10:10:48;;;;;;;13.20;5.97;;;;;;;23.65;100.00;98298.03;4997866;28;20409;-81
2023/10/01 10:13:36;;;;;;;13.48;6.20;;;;;;;23.37;100.00;98290.13;4998184;28;20402;-82
2023/10/01 10:16:28;;;;;;;11.30;5.68;;;;;;;23.18;100.00;98292.25;4997620;28;20888;-81
2023/10/01 10:19:08;;;;;;;10.27;5.38;;;;;;;22.88;100.00;98285.72;4985611;28;20432;-81
2023/10/01 10:22:25;;;;;;;10.27;5.25;;;;;;;22.65;100.00;98284.13;4997309;28;20399;-82
2023/10/01 10:25:25;;;;;;;11.15;4.85;;;;;;;22.52;100.00;98282.28;4986505;28;20416;-83
2023/10/01 10:27:52;;;;;;;10.75;4.95;;;;;;;22.53;100.00;98279.28;4992084;28;20438;-80
2023/10/01 10:30:21;;;;;;;14.63;6.83;;;;;;;22.43;100.00;98276.81;4989777;28;21006;-83
2023/10/01 10:33:39;;;;;;;12.13;6.00;;;;;;;22.56;100.00;98275.16;4997824;28;20406;-83
2023/10/01 10:36:50;;;;;;;9.07;5.28;;;;;;;22.62;100.00;98266.66;4994739;28;20861;-82
2023/10/01 10:40:12;;;;;;;9.50;4.80;;;;;;;22.67;100.00;98263.03;4998332;28;20802;-82
2023/10/01 10:42:40;;;;;;;10.95;5.05;;;;;;;22.66;100.00;98266.81;4993268;28;20938;-81
2023/10/01 10:45:20;;;;;;;12.07;5.82;;;;;;;22.59;100.00;98264.56;4986899;28;20408;-82
2023/10/01 10:48:03;;;;;;;11.70;5.90;;;;;;;22.65;100.00;98262.53;4987109;28;20496;-82
2023/10/01 10:50:49;;;;;;;12.38;5.72;;;;;;;22.57;100.00;98271.38;4990285;28;20392;-83
2023/10/01 10:53:19;;;;;;;14.10;6.82;;;;;;;22.49;100.00;98270.19;4993339;28;20399;-85
2023/10/01 10:56:00;;;;;;;11.37;5.93;;;;;;;22.56;100.00;98265.16;4994166;28;20429;-80
2023/10/01 10:58:31;;;;;;;12.77;6.17;;;;;;;22.63;100.00;98264.75;4980889;28;20400;-80
2023/10/01 11:01:15;;;;;;;10.38;5.68;;;;;;;22.71;100.00;98266.69;4988667;28;20416;-82
2023/10/01 11:03:42;;;;;;;10.13;4.83;;;;;;;22.82;100.00;98261.88;4988722;28;20402;-82
2023/10/01 11:06:17;;;;;;;9.82;5.00;;;;;;;22.96;100.00;98266.09;5000278;28;20450;-80
2023/10/01 11:08:50;;;;;;;10.70;5.05;;;;;;;23.10;100.00;98255.97;4991634;28;20447;-82
2023/10/01 11:11:30;;;;;;;8.73;4.40;;;;;;;23.21;100.00;98259.22;4990894;28;20433;-81
2023/10/01 11:14:02;;;;;;;11.68;5.32;;;;;;;23.27;100.00;98263.38;4991510;28;20404;-80
2023/10/01 11:16:38;;;;;;;10.35;5.18;;;;;;;23.33;100.00;98253.22;5000183;28;20418;-82
2023/10/01 11:19:12;;;;;;;10.55;5.25;;;;;;;23.34;100.00;98254.81;4991666;28;20416;-85
2023/10/01 11:22:00;;;;;;;9.75;4.80;;;;;;;23.40;100.00;98248.94;5005156;28;20430;-81
2023/10/01 11:24:31;;;;;;;14.32;6.47;;;;;;;23.40;100.00;98248.94;5004774;28;20401;-83
2023/10/01 11:30:28;;;;;;;11.85;5.95;;;;;;;23.53;100.00;98245.34;5001140;28;20397;-82
2023/10/01 11:33:01;;;;;;;12.68;6.05;;;;;;;23.52;100.00;98241.09;4992792;28;21376;-83
2023/10/01 11:35:32;;;;;;;10.93;5.80;;;;;;;23.65;100.00;98241.25;5000937;28;20485;-83
2023/10/01 11:38:00;;;;;;;10.10;5.25;;;;;;;23.82;100.00;98239.38;5003094;28;20431;-82
2023/10/01 11:41:06;;;;;;;16.20;7.25;;;;;;;23.97;100.00;98237.34;4995233;28;20399;-82
2023/10/01 11:43:23;;;;;;;11.80;6.10;;;;;;;24.26;100.00;98230.19;5002759;28;20417;-82
2023/10/01 11:46:20;;;;;;;12.95;5.70;;;;;;;24.47;100.00;98224.91;4993955;28;20419;-83
2023/10/01 11:48:56;;;;;;;11.52;6.03;;;;;;;24.79;100.00;98217.38;4994188;28;20510;-83
2023/10/01 11:51:32;;;;;;;14.18;6.80;;;;;;;25.01;100.00;98217.16;4995477;28;20744;-83
2023/10/01 11:54:09;;;;;;;13.55;6.20;;;;;;;25.23;100.00;98210.69;4992282;28;20427;-81
2023/10/01 11:56:37;;;;;;;10.55;5.47;;;;;;;25.46;100.00;98212.00;4995914;28;20423;-83
2023/10/01 11:59:05;;;;;;;11.45;5.90;;;;;;;25.77;100.00;98208.97;4992948;28;20411;-84
2023/10/01 12:01:39;;;;;;;10.77;5.90;;;;;;;26.04;100.00;98211.16;5004823;28;20403;-83
2023/10/01 12:04:06;;;;;;;11.40;5.50;;;;;;;26.30;100.00;98210.97;5000994;28;20458;-82
2023/10/01 12:06:34;;;;;;;18.27;8.27;;;;;;;26.12;94.71;98204.06;5003370;28;20410;-81
2023/10/01 12:09:00;;;;;;;16.10;7.60;;;;;;;26.28;97.67;98202.34;4989712;28;20400;-82
2023/10/01 12:11:26;;;;;;;13.85;6.72;;;;;;;26.40;98.87;98198.88;4990705;28;20400;-81
2023/10/01 12:14:06;;;;;;;12.68;6.28;;;;;;;26.69;100.00;98192.53;5001002;28;20472;-81
2023/10/01 12:16:35;;;;;;;11.40;5.80;;;;;;;27.28;100.00;98192.94;4987944;28;20419;-82
2023/10/01 12:21:48;;;;;;;13.30;6.60;;;;;;;28.50;94.71;98180.59;4988783;28;20418;-82